Latest Weather Observations for Marion Reef

IDQ60801

Issued at 9:05 pm EST Thursday 28 August 2014 (issued every 30 minutes, with the page automatically refreshed every 10 minutes)

About weather observations | Map of weather stations | Latest weather observations for QLD | Other Formats
Station Details ID: 200704 Name: MARION REEF Lat: -19.10 Lon: 152.39 Height: 2.0 m
Data from the previous 72 hours. | See also: Recent months for locations in Queensland
Date/Time
EST
Temp
°C
App
Temp
°C
Dew
Point
Rel
Hum
%
Delta-T
°C
Wind Press
QNH
hPa
Press
MSL
hPa
Rain
since 9 am
mm
Dir
 
Spd
km/h
Gust
km/h
Spd
kts
Gust
kts
28/09:00pm 21.0 - - - - S 32 37 17 20 1018.1 1018.0 -
28/08:30pm 21.1 - - - - S 32 35 17 19 1018.0 - -
28/08:00pm 21.2 - - - - S 30 37 16 20 1017.7 1017.7 -
28/07:30pm 21.4 - - - - S 28 35 15 19 1017.4 - -
28/07:00pm 21.6 - - - - S 30 35 16 19 1017.1 1017.1 -
28/06:30pm 21.6 - - - - S 30 35 16 19 1016.7 - -
28/06:00pm 21.6 - - - - S 26 32 14 17 1016.5 1016.4 -
28/05:30pm 21.7 - - - - S 24 32 13 17 1016.1 - -
28/05:00pm 21.7 - - - - S 26 32 14 17 1015.9 1015.8 -
28/04:30pm 21.9 - - - - S 28 32 15 17 1015.5 - -
28/04:00pm 21.9 - - - - S 28 35 15 19 1015.3 1015.3 -
28/03:30pm 22.3 - - - - S 28 32 15 17 1015.2 - -
28/03:00pm 22.0 - - - - S 28 35 15 19 1015.3 1015.2 -
28/02:30pm 22.3 - - - - S 30 35 16 19 1015.3 - -
28/02:00pm 22.4 - - - - S 28 33 15 18 1015.4 1015.3 -
28/01:30pm 22.4 - - - - S 28 33 15 18 1015.6 - -
28/01:00pm 22.6 - - - - S 28 33 15 18 1015.6 1015.5 -
28/12:30pm 22.7 - - - - SSW 19 22 10 12 1015.8 - -
28/12:00pm 22.8 - - - - SW 22 26 12 14 1016.2 1016.0 -
28/11:30am 22.8 - - - - SSW 20 26 11 14 1016.7 - -
28/11:00am 22.7 - - - - SSW 20 24 11 13 1017.1 1017.0 -
28/10:30am 22.6 - - - - SSW 20 24 11 13 1017.5 - -
28/10:00am 22.6 - - - - SSW 19 22 10 12 1017.6 1017.4 -
28/09:30am 22.4 - - - - SSW 20 24 11 13 1017.7 - -
28/09:00am 22.4 - - - - SSW 19 24 10 13 1017.7 1017.6 -
28/08:30am 22.4 - - - - S 20 26 11 14 1017.5 - -
28/08:00am 22.3 - - - - SSW 20 24 11 13 1017.3 1017.2 -
28/07:30am 22.2 - - - - SSW 19 22 10 12 1016.9 - -
28/07:00am 22.1 - - - - SSW 19 22 10 12 1016.6 1016.5 -
28/06:30am 21.9 - - - - SSW 17 20 9 11 1016.2 - -
28/06:00am 21.8 - - - - SSW 15 19 8 10 1015.9 1015.9 -
28/05:30am 21.9 - - - - SSW 17 22 9 12 1015.7 - -
28/05:00am 21.7 - - - - SSW 15 19 8 10 1015.5 1015.4 -
28/04:30am 21.6 - - - - SSW 13 17 7 9 1015.4 - -
28/04:00am 21.6 - - - - S 13 15 7 8 1015.4 1015.4 -
28/03:30am 21.7 - - - - SSW 11 15 6 8 1015.5 - -
28/03:00am 21.7 - - - - S 11 15 6 8 1015.6 1015.5 -
28/02:30am 21.7 - - - - S 13 19 7 10 1015.9 - -
28/02:00am 21.8 - - - - S 11 15 6 8 1016.1 1016.0 -
28/01:30am 21.9 - - - - S 13 20 7 11 1016.2 - -
28/01:00am 21.9 - - - - S 15 20 8 11 1016.4 1016.3 -
28/12:30am 21.9 - - - - S 9 15 5 8 1016.6 - -
28/12:00am 21.8 - - - - SSE 6 13 3 7 1016.7 1016.5 -
 
Date/Time
EST
Temp
°C
App
Temp
°C
Dew
Point
Rel
Hum
%
Delta-T
°C
Wind Press
QNH
hPa
Press
MSL
hPa
Rain
since 9 am
mm
Dir
 
Spd
km/h
Gust
km/h
Spd
kts
Gust
kts
27/11:30pm 22.0 - - - - SSE 11 15 6 8 1017.0 - -
27/11:00pm 22.2 - - - - SSE 11 13 6 7 1017.1 1017.0 -
27/10:30pm 22.2 - - - - S 11 17 6 9 1017.3 - -
27/10:00pm 22.2 - - - - SSE 15 17 8 9 1017.3 1017.2 -
27/09:30pm 22.3 - - - - SSE 13 19 7 10 1017.2 - -
27/09:00pm 22.3 - - - - SSE 15 20 8 11 1016.9 1016.9 -
27/08:30pm 22.3 - - - - SE 15 19 8 10 1016.7 - -
27/08:00pm 22.3 - - - - SSE 15 17 8 9 1016.5 1016.4 -
27/07:30pm 22.4 - - - - SSE 15 19 8 10 1016.2 - -
27/07:00pm 22.4 - - - - S 15 20 8 11 1015.7 1015.6 -
27/06:30pm 22.4 - - - - SSE 15 20 8 11 1015.4 - -
27/06:00pm 22.4 - - - - SSE 13 20 7 11 1014.9 1014.9 -
27/05:30pm 22.4 - - - - SE 15 20 8 11 1014.6 - -
27/05:00pm 22.5 - - - - SSE 17 19 9 10 1014.4 1014.3 -
27/04:30pm 22.6 - - - - SSE 17 20 9 11 1014.1 - -
27/04:00pm 22.6 - - - - S 19 24 10 13 1014.0 1013.9 -
27/03:30pm 22.7 - - - - SSE 19 22 10 12 1014.0 - -
27/03:00pm 22.8 - - - - SE 13 19 7 10 1013.7 1013.6 -
27/02:30pm 22.6 - - - - SE 15 19 8 10 1013.7 - -
27/02:00pm 22.6 - - - - SE 15 19 8 10 1014.0 1013.9 -
27/01:30pm 22.7 - - - - SE 13 17 7 9 1014.4 - -
27/01:00pm 22.6 - - - - ESE 13 15 7 8 1014.8 1014.7 -
27/12:30pm 22.4 - - - - SE 13 19 7 10 1015.1 - -
27/12:00pm 22.4 - - - - SE 13 17 7 9 1015.4 1015.2 -
27/11:30am 22.4 - - - - SSE 15 19 8 10 1015.9 - -
27/11:00am 22.2 - - - - SSE 15 17 8 9 1016.4 1016.3 -
27/10:30am 22.1 - - - - SSE 13 17 7 9 1016.7 - -
27/10:00am 22.1 - - - - SSE 15 20 8 11 1016.9 1016.8 -
27/09:30am 22.0 - - - - SE 13 19 7 10 1017.1 - -
27/09:00am 22.1 - - - - SSE 15 19 8 10 1017.0 1016.9 -
27/08:30am 21.9 - - - - SSE 15 20 8 11 1016.9 - -
27/08:00am 21.7 - - - - SSE 13 17 7 9 1016.6 1016.5 -
27/07:30am 21.6 - - - - SSE 15 19 8 10 1016.3 - -
27/07:00am 21.7 - - - - SSE 13 19 7 10 1015.9 1015.8 -
27/06:30am 21.5 - - - - SSE 15 19 8 10 1015.6 - -
27/06:00am 21.4 - - - - SSE 15 22 8 12 1015.3 1015.3 -
27/05:30am 21.5 - - - - SSE 17 20 9 11 1015.0 - -
27/05:00am 21.5 - - - - SSE 19 24 10 13 1014.8 1014.7 -
27/04:30am 21.5 - - - - S 19 26 10 14 1014.5 - -
27/04:00am 21.6 - - - - SSE 20 26 11 14 1014.5 1014.4 -
27/03:30am 21.7 - - - - S 22 26 12 14 1014.3 - -
27/03:00am 21.7 - - - - SSE 22 26 12 14 1014.3 1014.2 -
27/02:30am 21.7 - - - - S 22 28 12 15 1014.6 - -
27/02:00am 21.8 - - - - SSE 20 24 11 13 1014.7 1014.6 -
27/01:30am 21.8 - - - - SSE 22 26 12 14 1015.0 - -
27/01:00am 22.0 - - - - SSE 22 28 12 15 1015.3 1015.1 -
27/12:30am 22.0 - - - - SSE 22 28 12 15 1015.4 - -
27/12:00am 22.1 - - - - S 24 30 13 16 1015.6 1015.5 -
 
Date/Time
EST
Temp
°C
App
Temp
°C
Dew
Point
Rel
Hum
%
Delta-T
°C
Wind Press
QNH
hPa
Press
MSL
hPa
Rain
since 9 am
mm
Dir
 
Spd
km/h
Gust
km/h
Spd
kts
Gust
kts
26/11:30pm 22.2 - - - - S 24 28 13 15 1016.0 - -
26/11:00pm 22.2 - - - - S 24 30 13 16 1016.1 1016.0 -
26/10:30pm 22.4 - - - - S 24 28 13 15 1016.0 - -
26/10:00pm 22.3 - - - - S 26 32 14 17 1016.1 1016.0 -
26/09:30pm 22.4 - - - - SSE 26 32 14 17 1016.2 - -
26/09:00pm 22.5 - - - - SSE 26 33 14 18 1016.1 1016.1 -
26/08:30pm 22.5 - - - - SSE 26 30 14 16 1016.0 - -
26/08:00pm 22.7 - - - - SSE 26 30 14 16 1015.8 1015.7 -
26/07:30pm 22.8 - - - - SSE 26 30 14 16 1015.6 - -
26/07:00pm 22.7 - - - - SSE 26 30 14 16 1015.3 1015.3 -
26/06:30pm 22.7 - - - - SSE 28 33 15 18 1015.0 - -
26/06:00pm 22.7 - - - - SSE 28 33 15 18 1014.6 1014.6 -
26/05:30pm 22.7 - - - - SSE 30 32 16 17 1014.4 - -
26/05:00pm 22.7 - - - - SSE 32 35 17 19 1014.2 1014.1 -
26/04:30pm 22.7 - - - - SSE 30 35 16 19 1013.7 - -
26/04:00pm 22.7 - - - - SSE 32 39 17 21 1013.5 1013.6 -
26/03:30pm 22.7 - - - - SSE 32 37 17 20 1013.7 - -
26/03:00pm 22.7 - - - - SSE 32 35 17 19 1013.9 1013.8 -
26/02:30pm 22.7 - - - - SSE 32 37 17 20 1013.7 - -
26/02:00pm 22.6 - - - - SSE 32 39 17 21 1013.9 1013.8 -
26/01:30pm 22.8 - - - - SSE 32 37 17 20 1014.0 - -
26/01:00pm 22.8 - - - - SSE 35 41 19 22 1014.2 1014.0 -
26/12:30pm 22.7 - - - - SSE 30 35 16 19 1014.9 - -
26/12:00pm 22.9 - - - - SSE 32 39 17 21 1014.7 1014.6 -
26/11:30am 22.7 - - - - SSE 32 37 17 20 1015.5 - -
26/11:00am 22.8 - - - - SSE 33 39 18 21 1015.5 1015.4 -
26/10:30am 23.1 - - - - SE 33 39 18 21 1016.1 - -
26/10:00am 22.7 - - - - SSE 37 41 20 22 1015.8 1015.5 -
26/09:30am 22.7 - - - - SSE 37 41 20 22 1016.0 - -
26/09:00am 22.7 - - - - SSE 35 43 19 23 1016.2 1016.0 -
26/08:30am 22.8 - - - - SSE 37 43 20 23 1015.7 - -
26/08:00am 22.7 - - - - SSE 35 43 19 23 1015.6 1015.5 -
26/07:30am 22.6 - - - - SSE 37 44 20 24 1015.4 - -
26/07:00am 22.7 - - - - SSE 35 43 19 23 1015.1 1015.0 -
26/06:30am 22.5 - - - - SSE 37 43 20 23 1014.8 - -
26/06:00am 22.5 - - - - SSE 39 44 21 24 1014.3 1014.1 -
26/05:30am 22.6 - - - - SSE 39 43 21 23 1014.1 - -
26/05:00am 22.5 - - - - SSE 35 43 19 23 1013.9 1013.8 -
26/04:30am 22.5 - - - - SSE 37 44 20 24 1014.0 - -
26/04:00am 22.2 - - - - SSE 39 43 21 23 1013.9 1013.7 -
26/03:30am 22.4 - - - - SSE 41 46 22 25 1014.0 - -
26/03:00am 22.8 - - - - SSE 41 48 22 26 1013.9 1013.9 -
26/02:30am 22.7 - - - - SSE 41 46 22 25 1014.5 - -
26/02:00am 22.6 - - - - S 37 44 20 24 1014.5 1014.3 -
26/01:30am 22.4 - - - - SSE 41 46 22 25 1014.4 - -
26/01:00am 22.6 - - - - S 35 43 19 23 1015.2 1015.0 -
26/12:30am 22.5 - - - - S 41 48 22 26 1014.9 - -
26/12:00am 22.5 - - - - S 35 43 19 23 1015.6 1015.3 -
 
Date/Time
EST
Temp
°C
App
Temp
°C
Dew
Point
Rel
Hum
%
Delta-T
°C
Wind Press
QNH
hPa
Press
MSL
hPa
Rain
since 9 am
mm
Dir
 
Spd
km/h
Gust
km/h
Spd
kts
Gust
kts
25/11:30pm 22.6 - - - - S 35 41 19 22 1016.0 - -
25/11:00pm 22.5 - - - - S 35 44 19 24 1016.3 1016.1 -
25/10:30pm 22.3 - - - - S 33 39 18 21 1016.6 - -
25/10:00pm 22.1 - - - - S 37 43 20 23 1016.5 1016.6 -
25/09:30pm 22.0 - - - - S 37 44 20 24 1016.8 - -

Other Formats:

Comma delimited format used in spreadsheet applications
http://www.bom.gov.au/fwo/IDQ60801/IDQ60801.94298.axf

JavaScript Object Notation format (JSON) in row-major order
http://www.bom.gov.au/fwo/IDQ60801/IDQ60801.94298.json